To NAV CANADA Home Page Login to a new session Search on AWWS site Feedback and Comments Disclaimer Vers la page française équivalente Tips FAQ What's new on the site To the Forecasts and Observations / NOTAM section To "File a Flight Plan" website Publications and other links Update of the User's profile FIC Telephone Numbers My Weather Data Folder Route Weather Data Regional Weather Data Local Weather Data To the Forecasts and Observations / NOTAM section
Request Generated 08/25/2016 at 00:54:57 UTC . Weather information available at that time is displayed.

METAR/TAF

EDMONTON INTL/AB    

SPECI CYEG 250020Z 00000KT 15SM FEW060 SCT082 BKN110 BKN260 17/13
A3024 RMK CU1ACC4AC2CI1 CU TR SH E-S SLP252 DENSITY ALT 2800FT=
METAR CYEG 250000Z 01007G15KT 15SM -SHRA FEW060 BKN074 BKN260 17/12
A3025 RMK CU1ACC5CI1 SLP256 DENSITY ALT 2700FT=
SPECI CYEG 242345Z 01011G17KT 310V020 15SM -SHRA FEW060 BKN076 BKN120
BKN260 19/10 A3025 RMK CU1ACC4AC1CI1 SLP254 DENSITY ALT 2900FT=
METAR CYEG 242300Z 28007KT 15SM FEW062 SCT083 BKN260 22/08 A3024 RMK
CU1ACC2CI4 SH N SLP251 DENSITY ALT 3300FT=
METAR CYEG 242200Z 31008KT 15SM BKN062 BKN260 21/07 A3025 RMK CU5CI2
SLP254 DENSITY ALT 3200FT=

TAF CYEG 242338Z 2500/2524 28008KT P6SM SCT060 TEMPO 2500/2501
VRB15G25KT P6SM -SHRA BKN040
FM250400 30008KT P6SM SCT040 BKN080 TEMPO 2504/2509 P6SM -SHRA
BKN040 OVC080 PROB30 2504/2509 3SM TSRA BKN040CB
FM251000 21007KT P6SM -SHRA BKN020 OVC050
BECMG 2513/2515 32012KT
FM251800 34020KT P6SM -SHRA BKN030 BKN060
RMK NXT FCST BY 250300Z=
Your time UTC time
Weather data provided by Environment Canada and NAV CANADA